Latest Coastal Weather Observations for Cape Nelson

IDV60701

Issued at 8:25 pm EST Tuesday 23 September 2014 (issued every 10 minutes, with the page automatically refreshed every 10 minutes)

About coastal observations | Map of coastal stations | Coastal observations for VIC | Marine services | Other Formats
Station Details ID: 090184 Name: CAPE NELSON LIGHTHOUSE Lat: -38.43 Lon: 141.54 Height: 45.4 m
Data from the previous 72 hours. | See also: Recent months at Cape Nelson
Date/Time
EST
Temp

°C
Wind Pressure Rain
since 9am
mm
Weather Cloud Vis
km
Sea
Height
m
Swell
Dir
 
Speed
knots
Gust
knots
hPa Trend Height
m
Period
s
Dir
23/08:00pm 18.2 ENE 7 9 1018.6 - 0.0 - - - - - - -
23/07:30pm 18.7 ENE 8 11 1018.8 - 0.0 - - - - - - -
23/07:00pm 19.2 ENE 5 6 1018.8 - 0.0 - - - - - - -
23/06:30pm 19.9 SSE 4 5 1018.7 - 0.0 - - - - - - -
23/06:00pm 20.7 S 3 6 1018.9 - 0.0 - - - - - - -
23/05:30pm 21.4 SW 4 5 1019.3 - 0.0 - - - - - - -
23/05:00pm 23.0 SE 3 4 1019.4 - 0.0 - - - - - - -
23/04:30pm 23.7 S 3 4 1019.4 - 0.0 - - - - - - -
23/04:00pm 23.7 ESE 4 5 1019.6 - 0.0 - - - - - - -
23/03:30pm 23.3 S 5 6 1019.7 - 0.0 - - - - - - -
23/03:00pm 23.5 S 4 5 1020.0 - 0.0 - - - - - - -
23/02:30pm 24.0 S 5 8 1020.3 - 0.0 - - - - - - -
23/02:00pm 25.2 NNE 7 12 1020.6 - 0.0 - - - - - - -
23/01:30pm 26.7 NNW 10 16 1020.8 - 0.0 - - - - - - -
23/01:00pm 26.8 N 11 15 1021.2 - 0.0 - - - - - - -
23/12:30pm 26.4 N 11 18 1021.7 - 0.0 - - - - - - -
23/12:00pm 26.3 N 10 15 1022.1 - 0.0 - - - - - - -
23/11:30am 25.3 N 11 16 1022.5 - 0.0 - - - - - - -
23/11:00am 24.0 N 13 18 1022.9 - 0.0 - - - - - - -
23/10:30am 23.0 N 13 18 1023.0 - 0.0 - - - - - - -
23/10:00am 22.0 N 13 17 1023.3 - 0.0 - - - - - - -
23/09:30am 20.3 N 14 20 1023.3 - 0.0 - - - - - - -
23/09:00am 18.9 N 14 21 1023.3 - 0.0 - - - - - - -
23/08:30am 17.6 N 15 26 1023.3 - 0.0 - - - - - - -
23/08:28am 17.4 N 15 26 1023.2 - 0.0 - - - - - - -
23/08:00am 16.3 N 17 24 1023.1 - 0.0 - - - - - - -
23/07:30am 15.8 N 17 24 1023.0 - 0.0 - - - - - - -
23/07:00am 15.1 N 16 23 1022.9 - 0.0 - - - - - - -
23/06:30am 14.6 N 17 25 1022.6 - 0.0 - - - - - - -
23/06:00am 14.5 N 16 23 1022.5 - 0.0 - - - - - - -
23/05:30am 14.3 N 16 23 1022.5 - 0.0 - - - - - - -
23/05:00am 14.4 N 17 24 1022.4 - 0.0 - - - - - - -
23/04:30am 15.0 N 16 21 1022.4 - 0.0 - - - - - - -
23/04:00am 15.2 N 14 23 1022.4 - 0.0 - - - - - - -
23/03:30am 15.6 N 15 23 1022.4 - 0.0 - - - - - - -
23/03:00am 15.2 N 15 21 1022.5 - 0.0 - - - - - - -
23/02:30am 14.6 N 14 20 1022.7 - 0.0 - - - - - - -
23/02:00am 14.3 N 13 17 1023.1 - 0.0 - - - - - - -
23/01:30am 14.1 N 14 18 1023.3 - 0.0 - - - - - - -
23/01:00am 13.1 N 10 15 1023.6 - 0.0 - - - - - - -
23/12:30am 13.2 NNE 9 11 1023.9 - 0.0 - - - - - - -
23/12:00am 13.1 NNE 9 12 1024.0 - 0.0 - - - - - - -
 
Date/Time
EST
Temp

°C
Wind Pressure Rain
since 9am
mm
Weather Cloud Vis
km
Sea
Height
m
Swell
Dir
 
Speed
knots
Gust
knots
hPa Trend Height
m
Period
s
Dir
22/11:30pm 12.5 NNE 9 11 1024.4 - 0.0 - - - - - - -
22/11:00pm 12.7 NNE 9 12 1024.6 - 0.0 - - - - - - -
22/10:30pm 12.9 NNE 10 13 1024.9 - 0.0 - - - - - - -
22/10:00pm 13.3 NNE 10 13 1025.1 - 0.0 - - - - - - -
22/09:30pm 14.3 NE 10 13 1025.3 - 0.0 - - - - - - -
22/09:00pm 13.9 NE 10 13 1025.4 - 0.0 - - - - - - -
22/08:30pm 14.2 NE 8 11 1025.4 - 0.0 - - - - - - -
22/08:00pm 14.6 ENE 9 12 1025.4 - 0.0 - - - - - - -
22/07:30pm 15.0 E 7 9 1025.5 - 0.0 - - - - - - -
22/07:00pm 15.4 E 8 10 1025.4 - 0.0 - - - - - - -
22/06:30pm 15.6 E 7 10 1025.1 - 0.0 - - - - - - -
22/06:00pm 15.7 ESE 7 9 1024.9 - 0.0 - - - - - - -
22/05:30pm 16.7 ESE 7 9 1024.7 - 0.0 - - - - - - -
22/05:00pm 17.6 ESE 5 6 1024.6 - 0.0 - - - - - - -
22/04:30pm 18.3 SE 6 8 1024.5 - 0.0 - - - - - - -
22/04:00pm 19.1 SE 6 7 1024.5 - 0.0 - - - - - - -
22/03:30pm 19.7 SE 6 8 1024.6 - 0.0 - - - - - - -
22/03:00pm 20.3 SSE 5 7 1024.8 - 0.0 - - - - - - -
22/02:30pm 20.4 SSE 5 7 1025.0 - 0.0 - - - - - - -
22/02:00pm 20.2 SSE 5 7 1025.2 - 0.0 - - - - - - -
22/01:30pm 20.7 SSE 5 8 1025.4 - 0.0 - - - - - - -
22/01:00pm 22.0 NW 7 12 1025.4 - 0.0 - - - - - - -
22/12:30pm 22.0 WNW 8 12 1025.8 - 0.0 - - - - - - -
22/12:00pm 21.6 NW 8 12 1026.2 - 0.0 - - - - - - -
22/11:30am 21.9 NNW 9 12 1026.6 - 0.0 - - - - - - -
22/11:00am 20.8 N 8 13 1026.9 - 0.0 - - - - - - -
22/10:30am 19.5 N 9 14 1027.2 - 0.0 - - - - - - -
22/10:00am 19.0 N 9 14 1027.5 - 0.0 - - - - - - -
22/09:30am 17.7 N 9 12 1027.3 - 0.0 - - - - - - -
22/09:00am 16.1 N 10 15 1027.5 - 0.0 - - - - - - -
22/08:30am 14.5 N 9 13 1027.6 - 0.0 - - - - - - -
22/08:00am 13.3 N 10 15 1027.5 - 0.0 - - - - - - -
22/07:30am 11.3 N 10 13 1027.3 - 0.0 - - - - - - -
22/07:00am 8.6 N 7 9 1027.3 - 0.0 - - - - - - -
22/06:30am 7.4 N 7 9 1027.1 - 0.0 - - - - - - -
22/06:00am 8.6 N 8 9 1026.9 - 0.0 - - - - - - -
22/05:30am 8.4 N 8 10 1026.8 - 0.0 - - - - - - -
22/05:00am 8.4 N 7 9 1026.9 - 0.0 - - - - - - -
22/04:30am 7.9 N 7 9 1026.7 - 0.0 - - - - - - -
22/04:00am 7.9 N 10 12 1026.6 - 0.0 - - - - - - -
22/03:30am 8.1 N 10 13 1026.9 - 0.0 - - - - - - -
22/03:00am 7.7 NNE 9 12 1027.1 - 0.0 - - - - - - -
22/02:30am 8.2 NNE 9 11 1027.4 - 0.0 - - - - - - -
22/02:00am 8.8 NNE 10 14 1027.6 - 0.0 - - - - - - -
22/01:30am 9.3 NE 12 15 1027.9 - 0.0 - - - - - - -
22/01:00am 9.9 NE 12 16 1028.1 - 0.0 - - - - - - -
22/12:30am 10.3 NE 11 13 1028.3 - 0.0 - - - - - - -
22/12:00am 9.9 NE 11 15 1028.6 - 0.0 - - - - - - -
 
Date/Time
EST
Temp

°C
Wind Pressure Rain
since 9am
mm
Weather Cloud Vis
km
Sea
Height
m
Swell
Dir
 
Speed
knots
Gust
knots
hPa Trend Height
m
Period
s
Dir
21/11:30pm 10.1 NE 11 13 1028.9 - 0.0 - - - - - - -
21/11:00pm 11.2 NE 11 15 1029.2 - 0.0 - - - - - - -
21/10:30pm 11.7 ENE 12 16 1029.2 - 0.0 - - - - - - -
21/10:00pm 11.7 ENE 14 18 1029.4 - 0.0 - - - - - - -
21/09:30pm 11.7 ENE 13 17 1029.7 - 0.0 - - - - - - -
21/09:00pm 11.6 E 12 18 1029.8 - 0.0 - - - - - - -
21/08:30pm 11.7 E 11 15 1029.9 - 0.0 - - - - - - -
21/08:00pm 11.7 E 11 16 1029.9 - 0.0 - - - - - - -
21/07:30pm 11.6 E 11 16 1029.7 - 0.0 - - - - - - -
21/07:00pm 11.7 E 11 15 1029.6 - 0.0 - - - - - - -
21/06:30pm 11.6 E 11 14 1029.5 - 0.0 - - - - - - -
21/06:00pm 12.0 E 10 13 1029.5 - 0.0 - - - - - - -
21/05:30pm 12.4 E 10 12 1029.4 - 0.0 - - - - - - -
21/05:00pm 12.9 E 9 12 1029.3 - 0.0 - - - - - - -
21/04:30pm 13.4 E 10 13 1029.3 - 0.0 - - - - - - -
21/04:00pm 13.8 E 9 13 1029.4 - 0.0 - - - - - - -
21/03:30pm 14.3 E 9 12 1029.7 - 0.0 - - - - - - -
21/03:00pm 14.4 E 9 11 1030.2 - 0.0 - - - - - - -
21/02:30pm 14.7 E 9 11 1030.6 - 0.0 - - - - - - -
21/02:00pm 14.7 E 8 10 1030.9 - 0.0 - - - - - - -
21/01:30pm 14.9 E 7 10 1031.2 - 0.0 - - - - - - -
21/01:00pm 14.9 ENE 9 12 1031.7 - 0.0 - - - - - - -
21/12:30pm 14.9 ENE 8 11 1032.0 - 0.0 - - - - - - -
21/12:00pm 15.0 E 7 11 1032.3 - 0.0 - - - - - - -
21/11:30am 15.1 E 6 9 1032.7 - 0.0 - - - - - - -
21/11:00am 13.7 ENE 7 10 1032.8 - 0.0 - - - - - - -
21/10:30am 13.6 E 6 8 1032.9 - 0.0 - - - - - - -
21/10:00am 13.5 E 5 7 1033.0 - 0.0 - - - - - - -
21/09:30am 13.7 ENE 5 8 1032.8 - 0.0 - - - - - - -
21/09:00am 13.3 NE 4 6 1032.6 - 0.0 - - - - - - -
21/08:30am 11.6 NNE 4 5 1032.4 - 0.0 - - - - - - -
21/08:00am 11.2 NNE 5 6 1031.9 - 0.0 - - - - - - -
21/07:30am 8.5 NNE 5 7 1031.5 - 0.0 - - - - - - -
21/07:00am 7.0 NNE 5 6 1031.2 - 0.0 - - - - - - -
21/06:30am 6.9 NNE 6 7 1030.9 - 0.0 - - - - - - -
21/06:00am 7.3 NNE 5 6 1030.7 - 0.0 - - - - - - -
21/05:30am 8.1 N 5 6 1030.3 - 0.0 - - - - - - -
21/05:00am 10.6 E 7 11 1030.1 - 0.0 - - - - - - -
21/04:30am 11.1 E 8 12 1030.1 - 0.0 - - - - - - -
21/04:00am 11.5 E 7 10 1030.0 - 0.0 - - - - - - -
21/03:30am 11.7 E 8 10 1030.2 - 0.0 - - - - - - -
21/03:00am 11.9 ESE 6 12 1030.2 - 0.0 - - - - - - -
21/02:30am 11.8 SE 7 11 1030.5 - 0.0 - - - - - - -
21/02:00am 11.7 E 9 13 1030.7 - 0.0 - - - - - - -
21/01:30am 11.6 E 8 11 1030.9 - 0.0 - - - - - - -
21/01:00am 11.4 ESE 6 9 1030.9 - 0.0 - - - - - - -
21/12:30am 11.4 SE 7 11 1031.1 - 0.0 - - - - - - -
21/12:00am 11.3 SE 7 10 1031.0 - 0.0 - - - - - - -
 
Date/Time
EST
Temp

°C
Wind Pressure Rain
since 9am
mm
Weather Cloud Vis
km
Sea
Height
m
Swell
Dir
 
Speed
knots
Gust
knots
hPa Trend Height
m
Period
s
Dir
20/11:30pm 11.3 SE 7 11 1031.2 - 0.0 - - - - - - -
20/11:00pm 11.4 E 7 11 1031.1 - 0.0 - - - - - - -
20/10:30pm 11.2 ESE 6 9 1031.2 - 0.0 - - - - - - -
20/10:00pm 11.2 ESE 7 9 1031.3 - 0.0 - - - - - - -
20/09:30pm 11.3 E 7 10 1030.9 - 0.0 - - - - - - -
20/09:00pm 11.2 E 8 10 1030.7 - 0.0 - - - - - - -
20/08:30pm 11.6 E 8 11 1030.5 - 0.0 - - - - - - -

Other Formats:

Comma delimited format used in spreadsheet applications
http://www.bom.gov.au/fwo/IDV60701/IDV60701.94826.axf

JavaScript Object Notation format (JSON) in row-major order
http://www.bom.gov.au/fwo/IDV60701/IDV60701.94826.json